sensor_id;sensor_type;location;lat;lon;timestamp;P1;durP1;ratioP1;P2;durP2;ratioP2
75760;SDS011;64373;46.136;8.830;2023-05-07T00:00:56;1.42;;;1.30;;
75760;SDS011;64373;46.136;8.830;2023-05-07T00:03:24;3.47;;;1.60;;
75760;SDS011;64373;46.136;8.830;2023-05-07T00:05:51;1.45;;;1.35;;
75760;SDS011;64373;46.136;8.830;2023-05-07T00:08:18;1.55;;;1.10;;
75760;SDS011;64373;46.136;8.830;2023-05-07T00:10:44;1.15;;;1.05;;
75760;SDS011;64373;46.136;8.830;2023-05-07T00:13:10;1.63;;;1.00;;
75760;SDS011;64373;46.136;8.830;2023-05-07T00:15:35;1.33;;;1.10;;
75760;SDS011;64373;46.136;8.830;2023-05-07T00:18:01;1.40;;;1.20;;
75760;SDS011;64373;46.136;8.830;2023-05-07T00:20:26;1.10;;;1.00;;
75760;SDS011;64373;46.136;8.830;2023-05-07T00:22:52;2.40;;;1.50;;
75760;SDS011;64373;46.136;8.830;2023-05-07T00:25:18;1.77;;;1.60;;
75760;SDS011;64373;46.136;8.830;2023-05-07T00:27:44;1.23;;;0.95;;
75760;SDS011;64373;46.136;8.830;2023-05-07T00:30:10;2.67;;;1.80;;
75760;SDS011;64373;46.136;8.830;2023-05-07T00:32:36;1.85;;;1.60;;
75760;SDS011;64373;46.136;8.830;2023-05-07T00:35:03;2.80;;;1.70;;
75760;SDS011;64373;46.136;8.830;2023-05-07T00:37:29;2.33;;;1.70;;
75760;SDS011;64373;46.136;8.830;2023-05-07T00:39:55;1.95;;;1.58;;
75760;SDS011;64373;46.136;8.830;2023-05-07T00:42:20;1.67;;;1.40;;
75760;SDS011;64373;46.136;8.830;2023-05-07T00:44:46;5.25;;;1.42;;
75760;SDS011;64373;46.136;8.830;2023-05-07T00:47:12;2.45;;;1.55;;
75760;SDS011;64373;46.136;8.830;2023-05-07T00:49:39;1.95;;;1.77;;
75760;SDS011;64373;46.136;8.830;2023-05-07T00:52:11;1.45;;;1.00;;
75760;SDS011;64373;46.136;8.830;2023-05-07T00:54:39;2.60;;;1.45;;
75760;SDS011;64373;46.136;8.830;2023-05-07T00:57:05;1.92;;;1.73;;
75760;SDS011;64373;46.136;8.830;2023-05-07T00:59:31;1.70;;;1.60;;
75760;SDS011;64373;46.136;8.830;2023-05-07T01:01:58;2.38;;;1.92;;
75760;SDS011;64373;46.136;8.830;2023-05-07T01:04:24;3.10;;;1.73;;
75760;SDS011;64373;46.136;8.830;2023-05-07T01:06:51;2.58;;;1.80;;
75760;SDS011;64373;46.136;8.830;2023-05-07T01:09:17;2.00;;;1.80;;
75760;SDS011;64373;46.136;8.830;2023-05-07T01:11:43;2.42;;;1.63;;
75760;SDS011;64373;46.136;8.830;2023-05-07T01:14:09;1.70;;;1.58;;
75760;SDS011;64373;46.136;8.830;2023-05-07T01:16:34;1.20;;;1.10;;
75760;SDS011;64373;46.136;8.830;2023-05-07T01:19:01;1.10;;;1.00;;
75760;SDS011;64373;46.136;8.830;2023-05-07T01:21:26;1.40;;;1.25;;
75760;SDS011;64373;46.136;8.830;2023-05-07T01:23:52;1.75;;;1.10;;
75760;SDS011;64373;46.136;8.830;2023-05-07T01:26:19;1.80;;;1.40;;
75760;SDS011;64373;46.136;8.830;2023-05-07T01:28:45;2.10;;;1.73;;
75760;SDS011;64373;46.136;8.830;2023-05-07T01:31:11;2.30;;;1.63;;
75760;SDS011;64373;46.136;8.830;2023-05-07T01:33:37;2.25;;;1.65;;
75760;SDS011;64373;46.136;8.830;2023-05-07T01:36:03;2.58;;;1.58;;
75760;SDS011;64373;46.136;8.830;2023-05-07T01:38:31;2.03;;;1.60;;
75760;SDS011;64373;46.136;8.830;2023-05-07T01:40:57;1.75;;;1.27;;
75760;SDS011;64373;46.136;8.830;2023-05-07T01:43:23;1.40;;;1.20;;
75760;SDS011;64373;46.136;8.830;2023-05-07T01:45:49;1.00;;;0.90;;
75760;SDS011;64373;46.136;8.830;2023-05-07T01:48:14;1.70;;;1.27;;
75760;SDS011;64373;46.136;8.830;2023-05-07T01:50:41;2.25;;;1.30;;
75760;SDS011;64373;46.136;8.830;2023-05-07T01:53:08;2.13;;;1.92;;
75760;SDS011;64373;46.136;8.830;2023-05-07T01:55:33;3.35;;;1.60;;
75760;SDS011;64373;46.136;8.830;2023-05-07T01:57:59;1.25;;;1.10;;
75760;SDS011;64373;46.136;8.830;2023-05-07T02:00:24;2.67;;;1.13;;
75760;SDS011;64373;46.136;8.830;2023-05-07T02:02:50;1.50;;;1.38;;
75760;SDS011;64373;46.136;8.830;2023-05-07T02:05:17;1.10;;;1.00;;
75760;SDS011;64373;46.136;8.830;2023-05-07T02:07:43;1.80;;;1.60;;
75760;SDS011;64373;46.136;8.830;2023-05-07T02:10:08;1.90;;;1.70;;
75760;SDS011;64373;46.136;8.830;2023-05-07T02:12:34;1.98;;;1.23;;
75760;SDS011;64373;46.136;8.830;2023-05-07T02:15:00;1.30;;;1.20;;
75760;SDS011;64373;46.136;8.830;2023-05-07T02:17:25;2.10;;;1.52;;
75760;SDS011;64373;46.136;8.830;2023-05-07T02:19:51;1.15;;;0.90;;
75760;SDS011;64373;46.136;8.830;2023-05-07T02:22:17;1.00;;;0.90;;
75760;SDS011;64373;46.136;8.830;2023-05-07T02:24:43;0.90;;;0.80;;
75760;SDS011;64373;46.136;8.830;2023-05-07T02:27:09;1.02;;;0.77;;
75760;SDS011;64373;46.136;8.830;2023-05-07T02:29:35;0.60;;;0.60;;
75760;SDS011;64373;46.136;8.830;2023-05-07T02:32:00;1.98;;;1.15;;
75760;SDS011;64373;46.136;8.830;2023-05-07T02:34:26;1.95;;;1.23;;
75760;SDS011;64373;46.136;8.830;2023-05-07T02:36:51;1.92;;;1.42;;
75760;SDS011;64373;46.136;8.830;2023-05-07T02:39:17;2.20;;;1.15;;
75760;SDS011;64373;46.136;8.830;2023-05-07T02:41:42;1.77;;;1.40;;
75760;SDS011;64373;46.136;8.830;2023-05-07T02:44:08;2.50;;;1.42;;
75760;SDS011;64373;46.136;8.830;2023-05-07T02:46:34;2.55;;;1.60;;
75760;SDS011;64373;46.136;8.830;2023-05-07T02:48:59;1.83;;;1.55;;
75760;SDS011;64373;46.136;8.830;2023-05-07T02:51:25;2.47;;;1.48;;
75760;SDS011;64373;46.136;8.830;2023-05-07T02:53:51;3.30;;;1.88;;
75760;SDS011;64373;46.136;8.830;2023-05-07T02:56:16;3.15;;;1.42;;
75760;SDS011;64373;46.136;8.830;2023-05-07T02:58:42;1.55;;;1.10;;
75760;SDS011;64373;46.136;8.830;2023-05-07T03:01:08;1.08;;;0.82;;
75760;SDS011;64373;46.136;8.830;2023-05-07T03:03:33;1.38;;;1.27;;
75760;SDS011;64373;46.136;8.830;2023-05-07T03:05:59;1.50;;;1.40;;
75760;SDS011;64373;46.136;8.830;2023-05-07T03:08:25;1.58;;;1.40;;
75760;SDS011;64373;46.136;8.830;2023-05-07T03:10:51;2.90;;;1.67;;
75760;SDS011;64373;46.136;8.830;2023-05-07T03:13:16;1.27;;;1.17;;
75760;SDS011;64373;46.136;8.830;2023-05-07T03:15:42;1.55;;;1.00;;
75760;SDS011;64373;46.136;8.830;2023-05-07T03:18:08;0.80;;;0.80;;
75760;SDS011;64373;46.136;8.830;2023-05-07T03:20:33;1.25;;;1.10;;
75760;SDS011;64373;46.136;8.830;2023-05-07T03:22:59;1.17;;;0.95;;
75760;SDS011;64373;46.136;8.830;2023-05-07T03:25:25;1.05;;;0.90;;
75760;SDS011;64373;46.136;8.830;2023-05-07T03:27:50;1.23;;;1.00;;
75760;SDS011;64373;46.136;8.830;2023-05-07T03:30:16;1.75;;;1.20;;
75760;SDS011;64373;46.136;8.830;2023-05-07T03:32:42;1.10;;;1.00;;
75760;SDS011;64373;46.136;8.830;2023-05-07T03:35:08;3.28;;;1.60;;
75760;SDS011;64373;46.136;8.830;2023-05-07T03:37:33;1.80;;;1.42;;
75760;SDS011;64373;46.136;8.830;2023-05-07T03:39:59;2.03;;;1.83;;
75760;SDS011;64373;46.136;8.830;2023-05-07T03:42:25;2.15;;;1.75;;
75760;SDS011;64373;46.136;8.830;2023-05-07T03:44:50;2.08;;;1.58;;
75760;SDS011;64373;46.136;8.830;2023-05-07T03:47:16;1.80;;;1.70;;
75760;SDS011;64373;46.136;8.830;2023-05-07T03:49:41;1.50;;;1.40;;
75760;SDS011;64373;46.136;8.830;2023-05-07T03:52:07;1.98;;;1.30;;
75760;SDS011;64373;46.136;8.830;2023-05-07T03:54:32;1.08;;;1.02;;
75760;SDS011;64373;46.136;8.830;2023-05-07T03:56:58;1.10;;;0.90;;
75760;SDS011;64373;46.136;8.830;2023-05-07T03:59:23;1.30;;;1.20;;
75760;SDS011;64373;46.136;8.830;2023-05-07T04:01:49;3.40;;;1.77;;
75760;SDS011;64373;46.136;8.830;2023-05-07T04:04:15;1.35;;;1.20;;
75760;SDS011;64373;46.136;8.830;2023-05-07T04:06:40;1.25;;;1.02;;
75760;SDS011;64373;46.136;8.830;2023-05-07T04:09:06;0.88;;;0.88;;
75760;SDS011;64373;46.136;8.830;2023-05-07T04:11:32;1.10;;;1.00;;
75760;SDS011;64373;46.136;8.830;2023-05-07T04:13:58;1.10;;;1.00;;
75760;SDS011;64373;46.136;8.830;2023-05-07T04:16:24;1.10;;;1.00;;
75760;SDS011;64373;46.136;8.830;2023-05-07T04:18:49;0.98;;;0.90;;
75760;SDS011;64373;46.136;8.830;2023-05-07T04:21:15;1.05;;;0.88;;
75760;SDS011;64373;46.136;8.830;2023-05-07T04:23:41;0.75;;;0.65;;
75760;SDS011;64373;46.136;8.830;2023-05-07T04:26:07;1.73;;;0.80;;
75760;SDS011;64373;46.136;8.830;2023-05-07T04:28:33;1.85;;;1.10;;
75760;SDS011;64373;46.136;8.830;2023-05-07T04:30:59;0.73;;;0.70;;
75760;SDS011;64373;46.136;8.830;2023-05-07T04:33:25;1.23;;;0.82;;
75760;SDS011;64373;46.136;8.830;2023-05-07T04:35:51;0.73;;;0.73;;
75760;SDS011;64373;46.136;8.830;2023-05-07T04:38:16;0.80;;;0.80;;
75760;SDS011;64373;46.136;8.830;2023-05-07T04:40:43;1.00;;;0.90;;
75760;SDS011;64373;46.136;8.830;2023-05-07T04:43:09;0.82;;;0.73;;
75760;SDS011;64373;46.136;8.830;2023-05-07T04:45:35;0.90;;;0.90;;
75760;SDS011;64373;46.136;8.830;2023-05-07T04:48:01;0.93;;;0.82;;
75760;SDS011;64373;46.136;8.830;2023-05-07T04:50:26;1.10;;;0.80;;
75760;SDS011;64373;46.136;8.830;2023-05-07T04:52:52;1.10;;;1.00;;
75760;SDS011;64373;46.136;8.830;2023-05-07T04:55:18;1.00;;;0.90;;
75760;SDS011;64373;46.136;8.830;2023-05-07T04:57:43;0.60;;;0.60;;
75760;SDS011;64373;46.136;8.830;2023-05-07T05:00:09;1.33;;;1.23;;
75760;SDS011;64373;46.136;8.830;2023-05-07T05:02:35;0.90;;;0.90;;
75760;SDS011;64373;46.136;8.830;2023-05-07T05:05:01;1.50;;;1.40;;
75760;SDS011;64373;46.136;8.830;2023-05-07T05:07:27;1.52;;;1.42;;
75760;SDS011;64373;46.136;8.830;2023-05-07T05:09:54;1.25;;;1.15;;
75760;SDS011;64373;46.136;8.830;2023-05-07T05:12:20;1.30;;;0.90;;
75760;SDS011;64373;46.136;8.830;2023-05-07T05:14:46;1.00;;;0.90;;
75760;SDS011;64373;46.136;8.830;2023-05-07T05:17:12;1.17;;;0.88;;
75760;SDS011;64373;46.136;8.830;2023-05-07T05:19:37;1.00;;;0.90;;
75760;SDS011;64373;46.136;8.830;2023-05-07T05:22:03;0.82;;;0.80;;
75760;SDS011;64373;46.136;8.830;2023-05-07T05:24:29;1.30;;;1.00;;
75760;SDS011;64373;46.136;8.830;2023-05-07T05:26:55;1.02;;;0.80;;
75760;SDS011;64373;46.136;8.830;2023-05-07T05:29:21;1.10;;;1.00;;
75760;SDS011;64373;46.136;8.830;2023-05-07T05:31:46;1.30;;;1.10;;
75760;SDS011;64373;46.136;8.830;2023-05-07T05:34:12;1.10;;;1.00;;
75760;SDS011;64373;46.136;8.830;2023-05-07T05:36:38;1.88;;;0.98;;
75760;SDS011;64373;46.136;8.830;2023-05-07T05:39:03;2.40;;;1.13;;
75760;SDS011;64373;46.136;8.830;2023-05-07T05:41:29;1.20;;;1.10;;
75760;SDS011;64373;46.136;8.830;2023-05-07T05:43:55;3.40;;;1.77;;
75760;SDS011;64373;46.136;8.830;2023-05-07T05:46:21;1.30;;;1.20;;
75760;SDS011;64373;46.136;8.830;2023-05-07T05:48:46;2.33;;;1.15;;
75760;SDS011;64373;46.136;8.830;2023-05-07T05:51:12;2.38;;;1.40;;
75760;SDS011;64373;46.136;8.830;2023-05-07T05:53:37;1.15;;;1.08;;
75760;SDS011;64373;46.136;8.830;2023-05-07T05:56:03;1.60;;;1.30;;
75760;SDS011;64373;46.136;8.830;2023-05-07T05:58:29;2.33;;;1.40;;
75760;SDS011;64373;46.136;8.830;2023-05-07T06:00:55;2.20;;;1.60;;
75760;SDS011;64373;46.136;8.830;2023-05-07T06:03:21;1.67;;;1.20;;
75760;SDS011;64373;46.136;8.830;2023-05-07T06:05:47;1.73;;;1.40;;
75760;SDS011;64373;46.136;8.830;2023-05-07T06:08:12;2.00;;;1.45;;
75760;SDS011;64373;46.136;8.830;2023-05-07T06:10:38;1.40;;;1.30;;
75760;SDS011;64373;46.136;8.830;2023-05-07T06:13:04;1.10;;;1.00;;
75760;SDS011;64373;46.136;8.830;2023-05-07T06:15:30;1.08;;;0.98;;
75760;SDS011;64373;46.136;8.830;2023-05-07T06:17:55;1.17;;;1.08;;
75760;SDS011;64373;46.136;8.830;2023-05-07T06:20:22;1.80;;;1.10;;
75760;SDS011;64373;46.136;8.830;2023-05-07T06:22:48;1.13;;;0.93;;
75760;SDS011;64373;46.136;8.830;2023-05-07T06:25:14;1.05;;;0.80;;
75760;SDS011;64373;46.136;8.830;2023-05-07T06:27:39;1.27;;;0.80;;
75760;SDS011;64373;46.136;8.830;2023-05-07T06:30:06;0.95;;;0.95;;
75760;SDS011;64373;46.136;8.830;2023-05-07T06:32:32;1.65;;;1.17;;
75760;SDS011;64373;46.136;8.830;2023-05-07T06:34:57;1.08;;;0.90;;
75760;SDS011;64373;46.136;8.830;2023-05-07T06:37:23;1.30;;;0.88;;
75760;SDS011;64373;46.136;8.830;2023-05-07T06:39:48;1.75;;;0.98;;
75760;SDS011;64373;46.136;8.830;2023-05-07T06:42:14;1.20;;;1.05;;
75760;SDS011;64373;46.136;8.830;2023-05-07T06:44:40;1.02;;;0.95;;
75760;SDS011;64373;46.136;8.830;2023-05-07T06:47:05;1.45;;;0.90;;
75760;SDS011;64373;46.136;8.830;2023-05-07T06:49:31;2.88;;;1.10;;
75760;SDS011;64373;46.136;8.830;2023-05-07T06:51:57;1.40;;;1.10;;
75760;SDS011;64373;46.136;8.830;2023-05-07T06:54:23;1.52;;;1.25;;
75760;SDS011;64373;46.136;8.830;2023-05-07T06:56:48;1.30;;;1.20;;
75760;SDS011;64373;46.136;8.830;2023-05-07T06:59:14;2.05;;;1.30;;
75760;SDS011;64373;46.136;8.830;2023-05-07T07:01:41;1.05;;;0.95;;
75760;SDS011;64373;46.136;8.830;2023-05-07T07:04:06;1.10;;;1.00;;
75760;SDS011;64373;46.136;8.830;2023-05-07T07:06:32;1.42;;;1.10;;
75760;SDS011;64373;46.136;8.830;2023-05-07T07:08:58;0.93;;;0.82;;
75760;SDS011;64373;46.136;8.830;2023-05-07T07:11:24;1.05;;;0.90;;
75760;SDS011;64373;46.136;8.830;2023-05-07T07:13:49;1.05;;;0.95;;
75760;SDS011;64373;46.136;8.830;2023-05-07T07:16:16;1.10;;;1.00;;
75760;SDS011;64373;46.136;8.830;2023-05-07T07:18:41;2.10;;;0.98;;
75760;SDS011;64373;46.136;8.830;2023-05-07T07:21:07;1.17;;;0.90;;
75760;SDS011;64373;46.136;8.830;2023-05-07T07:23:32;2.00;;;1.17;;
75760;SDS011;64373;46.136;8.830;2023-05-07T07:25:58;1.30;;;1.13;;
75760;SDS011;64373;46.136;8.830;2023-05-07T07:28:23;1.10;;;1.00;;
75760;SDS011;64373;46.136;8.830;2023-05-07T07:30:49;1.33;;;1.23;;
75760;SDS011;64373;46.136;8.830;2023-05-07T07:33:14;1.15;;;0.93;;
75760;SDS011;64373;46.136;8.830;2023-05-07T07:35:41;1.20;;;1.10;;
75760;SDS011;64373;46.136;8.830;2023-05-07T07:38:06;1.88;;;0.98;;
75760;SDS011;64373;46.136;8.830;2023-05-07T07:40:34;0.88;;;0.85;;
75760;SDS011;64373;46.136;8.830;2023-05-07T07:43:00;4.50;;;1.40;;
75760;SDS011;64373;46.136;8.830;2023-05-07T07:45:26;2.10;;;1.50;;
75760;SDS011;64373;46.136;8.830;2023-05-07T07:47:52;3.95;;;1.58;;
75760;SDS011;64373;46.136;8.830;2023-05-07T07:50:17;1.75;;;1.10;;
75760;SDS011;64373;46.136;8.830;2023-05-07T07:52:43;1.20;;;1.10;;
75760;SDS011;64373;46.136;8.830;2023-05-07T07:55:09;1.23;;;1.10;;
75760;SDS011;64373;46.136;8.830;2023-05-07T07:57:35;1.27;;;1.17;;
75760;SDS011;64373;46.136;8.830;2023-05-07T08:00:00;2.58;;;1.30;;
75760;SDS011;64373;46.136;8.830;2023-05-07T08:02:26;1.35;;;1.20;;
75760;SDS011;64373;46.136;8.830;2023-05-07T08:04:52;1.20;;;0.95;;
75760;SDS011;64373;46.136;8.830;2023-05-07T08:07:17;1.40;;;1.23;;
75760;SDS011;64373;46.136;8.830;2023-05-07T08:09:45;1.48;;;1.38;;
75760;SDS011;64373;46.136;8.830;2023-05-07T08:12:11;1.55;;;1.00;;
75760;SDS011;64373;46.136;8.830;2023-05-07T08:14:37;2.15;;;1.25;;
75760;SDS011;64373;46.136;8.830;2023-05-07T08:17:03;1.20;;;1.10;;
75760;SDS011;64373;46.136;8.830;2023-05-07T08:19:28;1.40;;;1.30;;
75760;SDS011;64373;46.136;8.830;2023-05-07T08:21:54;1.90;;;1.10;;
75760;SDS011;64373;46.136;8.830;2023-05-07T08:24:20;1.15;;;1.00;;
75760;SDS011;64373;46.136;8.830;2023-05-07T08:26:46;1.13;;;1.05;;
75760;SDS011;64373;46.136;8.830;2023-05-07T08:29:11;2.03;;;1.20;;
75760;SDS011;64373;46.136;8.830;2023-05-07T08:31:37;1.88;;;1.10;;
75760;SDS011;64373;46.136;8.830;2023-05-07T08:34:04;1.50;;;1.02;;
75760;SDS011;64373;46.136;8.830;2023-05-07T08:36:31;1.50;;;1.40;;
75760;SDS011;64373;46.136;8.830;2023-05-07T08:38:57;1.83;;;1.00;;
75760;SDS011;64373;46.136;8.830;2023-05-07T08:41:23;1.40;;;1.30;;
75760;SDS011;64373;46.136;8.830;2023-05-07T08:43:49;2.17;;;1.40;;
75760;SDS011;64373;46.136;8.830;2023-05-07T08:46:16;1.48;;;1.15;;
75760;SDS011;64373;46.136;8.830;2023-05-07T08:48:44;1.27;;;1.08;;
75760;SDS011;64373;46.136;8.830;2023-05-07T08:51:14;1.15;;;0.98;;
75760;SDS011;64373;46.136;8.830;2023-05-07T08:53:44;1.10;;;1.00;;
75760;SDS011;64373;46.136;8.830;2023-05-07T08:56:11;3.03;;;1.00;;
75760;SDS011;64373;46.136;8.830;2023-05-07T08:58:37;1.85;;;1.00;;
75760;SDS011;64373;46.136;8.830;2023-05-07T09:01:03;1.10;;;1.00;;
75760;SDS011;64373;46.136;8.830;2023-05-07T09:03:35;1.27;;;1.00;;
75760;SDS011;64373;46.136;8.830;2023-05-07T09:06:02;1.60;;;1.10;;
75760;SDS011;64373;46.136;8.830;2023-05-07T09:08:28;1.98;;;1.20;;
75760;SDS011;64373;46.136;8.830;2023-05-07T09:10:54;1.20;;;0.90;;
75760;SDS011;64373;46.136;8.830;2023-05-07T09:13:20;1.17;;;1.00;;
75760;SDS011;64373;46.136;8.830;2023-05-07T09:15:46;0.88;;;0.82;;
75760;SDS011;64373;46.136;8.830;2023-05-07T09:18:14;0.90;;;0.90;;
75760;SDS011;64373;46.136;8.830;2023-05-07T09:20:40;0.75;;;0.75;;
75760;SDS011;64373;46.136;8.830;2023-05-07T09:23:06;1.52;;;1.00;;
75760;SDS011;64373;46.136;8.830;2023-05-07T09:25:33;1.30;;;1.00;;
75760;SDS011;64373;46.136;8.830;2023-05-07T09:27:59;1.10;;;1.00;;
75760;SDS011;64373;46.136;8.830;2023-05-07T09:30:29;4.57;;;1.05;;
75760;SDS011;64373;46.136;8.830;2023-05-07T09:32:56;1.58;;;0.98;;
75760;SDS011;64373;46.136;8.830;2023-05-07T09:35:22;1.00;;;1.00;;
75760;SDS011;64373;46.136;8.830;2023-05-07T09:37:52;1.70;;;0.93;;
75760;SDS011;64373;46.136;8.830;2023-05-07T09:40:22;2.17;;;1.20;;
75760;SDS011;64373;46.136;8.830;2023-05-07T09:42:49;1.33;;;1.10;;
75760;SDS011;64373;46.136;8.830;2023-05-07T09:45:15;0.80;;;0.80;;
75760;SDS011;64373;46.136;8.830;2023-05-07T09:47:42;1.10;;;1.00;;
75760;SDS011;64373;46.136;8.830;2023-05-07T09:50:12;1.90;;;1.00;;
75760;SDS011;64373;46.136;8.830;2023-05-07T09:52:41;0.85;;;0.85;;
75760;SDS011;64373;46.136;8.830;2023-05-07T09:55:07;1.20;;;1.10;;
75760;SDS011;64373;46.136;8.830;2023-05-07T09:57:34;2.72;;;1.40;;
75760;SDS011;64373;46.136;8.830;2023-05-07T10:00:00;1.23;;;1.13;;
75760;SDS011;64373;46.136;8.830;2023-05-07T10:02:29;0.90;;;0.90;;
75760;SDS011;64373;46.136;8.830;2023-05-07T10:04:56;1.10;;;1.00;;
75760;SDS011;64373;46.136;8.830;2023-05-07T10:07:21;1.30;;;1.10;;
75760;SDS011;64373;46.136;8.830;2023-05-07T10:09:48;1.50;;;1.40;;
75760;SDS011;64373;46.136;8.830;2023-05-07T10:12:14;0.90;;;0.90;;
75760;SDS011;64373;46.136;8.830;2023-05-07T10:14:40;2.70;;;1.30;;
75760;SDS011;64373;46.136;8.830;2023-05-07T10:17:07;1.10;;;1.00;;
75760;SDS011;64373;46.136;8.830;2023-05-07T10:19:33;1.50;;;1.40;;
75760;SDS011;64373;46.136;8.830;2023-05-07T10:22:01;1.45;;;1.30;;
75760;SDS011;64373;46.136;8.830;2023-05-07T10:24:31;1.50;;;1.40;;
75760;SDS011;64373;46.136;8.830;2023-05-07T10:26:59;2.35;;;1.23;;
75760;SDS011;64373;46.136;8.830;2023-05-07T10:34:40;1.85;;;1.60;;
75760;SDS011;64373;46.136;8.830;2023-05-07T10:37:09;1.80;;;1.70;;
75760;SDS011;64373;46.136;8.830;2023-05-07T10:39:35;1.60;;;1.50;;
75760;SDS011;64373;46.136;8.830;2023-05-07T10:42:11;2.17;;;1.98;;
75760;SDS011;64373;46.136;8.830;2023-05-07T10:44:37;2.08;;;1.77;;
75760;SDS011;64373;46.136;8.830;2023-05-07T10:47:12;1.70;;;1.60;;
75760;SDS011;64373;46.136;8.830;2023-05-07T10:52:17;2.00;;;1.80;;
75760;SDS011;64373;46.136;8.830;2023-05-07T10:54:45;2.35;;;1.60;;
75760;SDS011;64373;46.136;8.830;2023-05-07T11:00:02;1.80;;;1.70;;
75760;SDS011;64373;46.136;8.830;2023-05-07T11:05:25;1.92;;;1.60;;
75760;SDS011;64373;46.136;8.830;2023-05-07T11:07:54;1.60;;;1.50;;
75760;SDS011;64373;46.136;8.830;2023-05-07T11:10:21;1.55;;;1.45;;
75760;SDS011;64373;46.136;8.830;2023-05-07T11:12:47;2.33;;;2.13;;
75760;SDS011;64373;46.136;8.830;2023-05-07T11:15:13;2.75;;;2.50;;
75760;SDS011;64373;46.136;8.830;2023-05-07T11:17:55;2.75;;;1.90;;
75760;SDS011;64373;46.136;8.830;2023-05-07T11:20:43;1.90;;;1.80;;
75760;SDS011;64373;46.136;8.830;2023-05-07T11:28:38;2.20;;;2.00;;
75760;SDS011;64373;46.136;8.830;2023-05-07T11:31:08;1.60;;;1.50;;
75760;SDS011;64373;46.136;8.830;2023-05-07T11:33:36;2.40;;;2.10;;
75760;SDS011;64373;46.136;8.830;2023-05-07T11:36:03;1.63;;;1.52;;
75760;SDS011;64373;46.136;8.830;2023-05-07T11:38:35;1.45;;;1.33;;
75760;SDS011;64373;46.136;8.830;2023-05-07T11:41:03;1.70;;;1.60;;
75760;SDS011;64373;46.136;8.830;2023-05-07T11:43:32;3.10;;;1.77;;
75760;SDS011;64373;46.136;8.830;2023-05-07T11:46:08;1.63;;;1.52;;
75760;SDS011;64373;46.136;8.830;2023-05-07T11:48:34;1.70;;;1.60;;
75760;SDS011;64373;46.136;8.830;2023-05-07T11:51:01;2.00;;;1.90;;
75760;SDS011;64373;46.136;8.830;2023-05-07T11:53:35;2.15;;;1.80;;
75760;SDS011;64373;46.136;8.830;2023-05-07T11:56:09;2.00;;;1.90;;
75760;SDS011;64373;46.136;8.830;2023-05-07T11:58:37;3.05;;;2.33;;
75760;SDS011;64373;46.136;8.830;2023-05-07T12:01:04;2.10;;;1.90;;
75760;SDS011;64373;46.136;8.830;2023-05-07T12:03:29;2.22;;;2.13;;
75760;SDS011;64373;46.136;8.830;2023-05-07T12:05:55;2.33;;;2.10;;
75760;SDS011;64373;46.136;8.830;2023-05-07T12:08:21;2.97;;;1.92;;
75760;SDS011;64373;46.136;8.830;2023-05-07T12:10:47;2.53;;;2.17;;
75760;SDS011;64373;46.136;8.830;2023-05-07T12:13:21;2.63;;;2.20;;
75760;SDS011;64373;46.136;8.830;2023-05-07T12:15:52;2.15;;;1.90;;
75760;SDS011;64373;46.136;8.830;2023-05-07T12:18:18;1.80;;;1.70;;
75760;SDS011;64373;46.136;8.830;2023-05-07T12:20:45;2.70;;;2.50;;
75760;SDS011;64373;46.136;8.830;2023-05-07T12:23:12;2.55;;;2.35;;
75760;SDS011;64373;46.136;8.830;2023-05-07T12:25:38;2.40;;;2.20;;
75760;SDS011;64373;46.136;8.830;2023-05-07T12:28:05;1.65;;;1.55;;
75760;SDS011;64373;46.136;8.830;2023-05-07T12:30:42;1.80;;;1.70;;
75760;SDS011;64373;46.136;8.830;2023-05-07T12:33:08;1.80;;;1.70;;
75760;SDS011;64373;46.136;8.830;2023-05-07T12:35:38;1.63;;;1.52;;
75760;SDS011;64373;46.136;8.830;2023-05-07T12:38:08;2.83;;;2.25;;
75760;SDS011;64373;46.136;8.830;2023-05-07T12:40:39;3.28;;;2.40;;
75760;SDS011;64373;46.136;8.830;2023-05-07T12:43:07;2.80;;;2.55;;
75760;SDS011;64373;46.136;8.830;2023-05-07T12:45:37;2.10;;;2.00;;
75760;SDS011;64373;46.136;8.830;2023-05-07T12:48:04;2.45;;;2.25;;
75760;SDS011;64373;46.136;8.830;2023-05-07T12:50:32;2.33;;;2.13;;
75760;SDS011;64373;46.136;8.830;2023-05-07T12:52:58;2.60;;;2.40;;
75760;SDS011;64373;46.136;8.830;2023-05-07T12:55:24;3.10;;;2.30;;
75760;SDS011;64373;46.136;8.830;2023-05-07T12:57:50;2.80;;;2.60;;
75760;SDS011;64373;46.136;8.830;2023-05-07T13:00:16;3.33;;;2.70;;
75760;SDS011;64373;46.136;8.830;2023-05-07T13:02:43;2.95;;;2.70;;
75760;SDS011;64373;46.136;8.830;2023-05-07T13:05:09;3.00;;;2.75;;
75760;SDS011;64373;46.136;8.830;2023-05-07T13:07:35;2.92;;;2.67;;
75760;SDS011;64373;46.136;8.830;2023-05-07T13:10:02;3.45;;;2.50;;
75760;SDS011;64373;46.136;8.830;2023-05-07T13:12:28;3.35;;;2.92;;
75760;SDS011;64373;46.136;8.830;2023-05-07T13:14:54;2.47;;;2.28;;
75760;SDS011;64373;46.136;8.830;2023-05-07T13:17:20;2.67;;;2.22;;
75760;SDS011;64373;46.136;8.830;2023-05-07T13:19:45;2.25;;;2.10;;
75760;SDS011;64373;46.136;8.830;2023-05-07T13:22:11;2.22;;;2.13;;
75760;SDS011;64373;46.136;8.830;2023-05-07T13:24:36;2.25;;;2.00;;
75760;SDS011;64373;46.136;8.830;2023-05-07T13:27:02;2.28;;;2.08;;
75760;SDS011;64373;46.136;8.830;2023-05-07T13:29:28;3.35;;;2.55;;
75760;SDS011;64373;46.136;8.830;2023-05-07T13:31:56;2.50;;;2.30;;
75760;SDS011;64373;46.136;8.830;2023-05-07T13:34:22;2.97;;;2.67;;
75760;SDS011;64373;46.136;8.830;2023-05-07T13:36:47;2.25;;;2.00;;
75760;SDS011;64373;46.136;8.830;2023-05-07T13:39:13;3.70;;;2.80;;
75760;SDS011;64373;46.136;8.830;2023-05-07T13:41:39;2.80;;;2.60;;
75760;SDS011;64373;46.136;8.830;2023-05-07T13:44:04;2.90;;;2.70;;
75760;SDS011;64373;46.136;8.830;2023-05-07T13:46:30;2.88;;;2.63;;
75760;SDS011;64373;46.136;8.830;2023-05-07T13:48:55;2.60;;;2.40;;
75760;SDS011;64373;46.136;8.830;2023-05-07T13:51:21;3.40;;;3.10;;
75760;SDS011;64373;46.136;8.830;2023-05-07T13:53:47;3.38;;;3.05;;
75760;SDS011;64373;46.136;8.830;2023-05-07T13:56:12;5.65;;;3.45;;
75760;SDS011;64373;46.136;8.830;2023-05-07T13:58:39;3.50;;;3.15;;
75760;SDS011;64373;46.136;8.830;2023-05-07T14:01:05;3.05;;;2.55;;
75760;SDS011;64373;46.136;8.830;2023-05-07T14:03:30;2.92;;;2.72;;
75760;SDS011;64373;46.136;8.830;2023-05-07T14:05:58;6.60;;;4.00;;
75760;SDS011;64373;46.136;8.830;2023-05-07T14:08:25;3.83;;;3.53;;
75760;SDS011;64373;46.136;8.830;2023-05-07T14:10:51;2.90;;;2.70;;
75760;SDS011;64373;46.136;8.830;2023-05-07T14:13:17;3.90;;;3.20;;
75760;SDS011;64373;46.136;8.830;2023-05-07T14:15:42;3.33;;;3.08;;
75760;SDS011;64373;46.136;8.830;2023-05-07T14:18:11;4.28;;;3.88;;
75760;SDS011;64373;46.136;8.830;2023-05-07T14:20:37;3.92;;;3.63;;
75760;SDS011;64373;46.136;8.830;2023-05-07T14:23:03;4.95;;;3.70;;
75760;SDS011;64373;46.136;8.830;2023-05-07T14:25:29;3.75;;;3.45;;
75760;SDS011;64373;46.136;8.830;2023-05-07T14:27:54;3.28;;;2.75;;
75760;SDS011;64373;46.136;8.830;2023-05-07T14:30:20;3.50;;;2.95;;
75760;SDS011;64373;46.136;8.830;2023-05-07T14:32:47;3.10;;;2.47;;
75760;SDS011;64373;46.136;8.830;2023-05-07T14:35:13;3.40;;;3.08;;
75760;SDS011;64373;46.136;8.830;2023-05-07T14:37:38;3.08;;;2.78;;
75760;SDS011;64373;46.136;8.830;2023-05-07T14:40:04;3.15;;;2.40;;
75760;SDS011;64373;46.136;8.830;2023-05-07T14:42:30;2.88;;;2.13;;
75760;SDS011;64373;46.136;8.830;2023-05-07T14:44:55;5.03;;;3.03;;
75760;SDS011;64373;46.136;8.830;2023-05-07T14:47:21;2.97;;;2.67;;
75760;SDS011;64373;46.136;8.830;2023-05-07T14:49:46;4.15;;;2.63;;
75760;SDS011;64373;46.136;8.830;2023-05-07T14:52:12;3.58;;;2.10;;
75760;SDS011;64373;46.136;8.830;2023-05-07T14:54:38;3.30;;;3.00;;
75760;SDS011;64373;46.136;8.830;2023-05-07T14:57:04;2.85;;;2.65;;
75760;SDS011;64373;46.136;8.830;2023-05-07T14:59:30;3.38;;;2.50;;
75760;SDS011;64373;46.136;8.830;2023-05-07T15:01:57;2.38;;;2.17;;